sensor_id;sensor_type;location;lat;lon;timestamp;P1;durP1;ratioP1;P2;durP2;ratioP2
53857;SDS011;39763;51.188;6.690;2022-11-15T00:00:56;14.80;;;8.93;;
53857;SDS011;39763;51.188;6.690;2022-11-15T00:02:46;14.23;;;8.50;;
53857;SDS011;39763;51.188;6.690;2022-11-15T00:04:36;16.38;;;8.98;;
53857;SDS011;39763;51.188;6.690;2022-11-15T00:06:27;14.07;;;7.97;;
53857;SDS011;39763;51.188;6.690;2022-11-15T00:08:17;14.20;;;7.97;;
53857;SDS011;39763;51.188;6.690;2022-11-15T00:10:08;14.55;;;8.40;;
53857;SDS011;39763;51.188;6.690;2022-11-15T00:11:59;16.23;;;8.60;;
53857;SDS011;39763;51.188;6.690;2022-11-15T00:13:50;14.93;;;8.30;;
53857;SDS011;39763;51.188;6.690;2022-11-15T00:15:40;13.40;;;8.15;;
53857;SDS011;39763;51.188;6.690;2022-11-15T00:17:31;17.05;;;9.30;;
53857;SDS011;39763;51.188;6.690;2022-11-15T00:19:21;14.68;;;8.60;;
53857;SDS011;39763;51.188;6.690;2022-11-15T00:21:12;14.85;;;8.98;;
53857;SDS011;39763;51.188;6.690;2022-11-15T00:23:04;16.70;;;8.82;;
53857;SDS011;39763;51.188;6.690;2022-11-15T00:24:57;15.23;;;8.55;;
53857;SDS011;39763;51.188;6.690;2022-11-15T00:26:48;15.48;;;9.27;;
53857;SDS011;39763;51.188;6.690;2022-11-15T00:28:40;15.02;;;8.25;;
53857;SDS011;39763;51.188;6.690;2022-11-15T00:30:30;15.85;;;8.55;;
53857;SDS011;39763;51.188;6.690;2022-11-15T00:32:21;15.57;;;8.90;;
53857;SDS011;39763;51.188;6.690;2022-11-15T00:34:11;18.35;;;9.57;;
53857;SDS011;39763;51.188;6.690;2022-11-15T00:36:02;15.55;;;8.13;;
53857;SDS011;39763;51.188;6.690;2022-11-15T00:37:54;15.27;;;8.43;;
53857;SDS011;39763;51.188;6.690;2022-11-15T00:39:44;14.50;;;8.57;;
53857;SDS011;39763;51.188;6.690;2022-11-15T00:41:35;16.08;;;8.55;;
53857;SDS011;39763;51.188;6.690;2022-11-15T00:43:25;14.95;;;8.57;;
53857;SDS011;39763;51.188;6.690;2022-11-15T00:45:17;15.10;;;8.52;;
53857;SDS011;39763;51.188;6.690;2022-11-15T00:47:08;14.35;;;8.48;;
53857;SDS011;39763;51.188;6.690;2022-11-15T00:48:59;15.45;;;8.65;;
53857;SDS011;39763;51.188;6.690;2022-11-15T00:50:49;15.32;;;8.43;;
53857;SDS011;39763;51.188;6.690;2022-11-15T00:52:40;16.08;;;8.88;;
53857;SDS011;39763;51.188;6.690;2022-11-15T00:54:31;16.23;;;8.73;;
53857;SDS011;39763;51.188;6.690;2022-11-15T00:56:21;15.07;;;9.13;;
53857;SDS011;39763;51.188;6.690;2022-11-15T00:58:11;15.50;;;8.55;;
53857;SDS011;39763;51.188;6.690;2022-11-15T01:00:02;14.93;;;8.85;;
53857;SDS011;39763;51.188;6.690;2022-11-15T01:01:55;16.25;;;8.93;;
53857;SDS011;39763;51.188;6.690;2022-11-15T01:03:45;14.40;;;8.20;;
53857;SDS011;39763;51.188;6.690;2022-11-15T01:05:36;15.25;;;8.63;;
53857;SDS011;39763;51.188;6.690;2022-11-15T01:07:26;14.85;;;8.68;;
53857;SDS011;39763;51.188;6.690;2022-11-15T01:09:17;17.15;;;8.93;;
53857;SDS011;39763;51.188;6.690;2022-11-15T01:11:08;18.48;;;9.57;;
53857;SDS011;39763;51.188;6.690;2022-11-15T01:13:00;15.20;;;8.52;;
53857;SDS011;39763;51.188;6.690;2022-11-15T01:14:50;15.30;;;8.57;;
53857;SDS011;39763;51.188;6.690;2022-11-15T01:16:41;16.02;;;8.73;;
53857;SDS011;39763;51.188;6.690;2022-11-15T01:18:33;14.70;;;8.38;;
53857;SDS011;39763;51.188;6.690;2022-11-15T01:20:23;14.32;;;8.25;;
53857;SDS011;39763;51.188;6.690;2022-11-15T01:22:14;15.05;;;7.75;;
53857;SDS011;39763;51.188;6.690;2022-11-15T01:24:04;16.02;;;8.38;;
53857;SDS011;39763;51.188;6.690;2022-11-15T01:25:58;16.58;;;8.85;;
53857;SDS011;39763;51.188;6.690;2022-11-15T01:27:48;16.48;;;8.30;;
53857;SDS011;39763;51.188;6.690;2022-11-15T01:29:39;12.65;;;8.27;;
53857;SDS011;39763;51.188;6.690;2022-11-15T01:31:29;14.75;;;8.00;;
53857;SDS011;39763;51.188;6.690;2022-11-15T01:33:20;15.60;;;8.15;;
53857;SDS011;39763;51.188;6.690;2022-11-15T01:35:12;15.35;;;8.70;;
53857;SDS011;39763;51.188;6.690;2022-11-15T01:37:02;15.68;;;7.95;;
53857;SDS011;39763;51.188;6.690;2022-11-15T01:38:53;15.45;;;8.50;;
53857;SDS011;39763;51.188;6.690;2022-11-15T01:40:43;16.00;;;8.40;;
53857;SDS011;39763;51.188;6.690;2022-11-15T01:42:34;14.48;;;8.27;;
53857;SDS011;39763;51.188;6.690;2022-11-15T01:44:41;15.90;;;8.63;;
53857;SDS011;39763;51.188;6.690;2022-11-15T01:46:33;15.82;;;9.13;;
53857;SDS011;39763;51.188;6.690;2022-11-15T01:48:26;15.02;;;8.48;;
53857;SDS011;39763;51.188;6.690;2022-11-15T01:50:23;16.05;;;8.30;;
53857;SDS011;39763;51.188;6.690;2022-11-15T01:52:18;13.43;;;7.97;;
53857;SDS011;39763;51.188;6.690;2022-11-15T01:54:12;15.65;;;8.27;;
53857;SDS011;39763;51.188;6.690;2022-11-15T01:56:08;14.07;;;7.85;;
53857;SDS011;39763;51.188;6.690;2022-11-15T01:58:01;19.08;;;8.98;;
53857;SDS011;39763;51.188;6.690;2022-11-15T01:59:55;16.10;;;8.52;;
53857;SDS011;39763;51.188;6.690;2022-11-15T02:01:47;14.32;;;8.10;;
53857;SDS011;39763;51.188;6.690;2022-11-15T02:03:38;15.00;;;8.00;;
53857;SDS011;39763;51.188;6.690;2022-11-15T02:05:37;13.57;;;7.75;;
53857;SDS011;39763;51.188;6.690;2022-11-15T02:07:28;15.68;;;8.70;;
53857;SDS011;39763;51.188;6.690;2022-11-15T02:09:20;13.23;;;7.70;;
53857;SDS011;39763;51.188;6.690;2022-11-15T02:11:10;14.18;;;8.75;;
53857;SDS011;39763;51.188;6.690;2022-11-15T02:13:01;17.10;;;8.82;;
53857;SDS011;39763;51.188;6.690;2022-11-15T02:14:52;15.90;;;8.80;;
53857;SDS011;39763;51.188;6.690;2022-11-15T02:16:46;15.23;;;8.30;;
53857;SDS011;39763;51.188;6.690;2022-11-15T02:18:44;14.32;;;8.13;;
53857;SDS011;39763;51.188;6.690;2022-11-15T02:20:48;15.13;;;8.57;;
53857;SDS011;39763;51.188;6.690;2022-11-15T02:22:51;14.98;;;8.10;;
53857;SDS011;39763;51.188;6.690;2022-11-15T02:25:01;14.20;;;7.63;;
53857;SDS011;39763;51.188;6.690;2022-11-15T02:31:49;14.20;;;7.90;;
53857;SDS011;39763;51.188;6.690;2022-11-15T02:33:47;16.65;;;8.32;;
53857;SDS011;39763;51.188;6.690;2022-11-15T02:35:43;15.50;;;8.30;;
53857;SDS011;39763;51.188;6.690;2022-11-15T02:37:42;14.95;;;8.38;;
53857;SDS011;39763;51.188;6.690;2022-11-15T02:39:41;16.85;;;8.35;;
53857;SDS011;39763;51.188;6.690;2022-11-15T02:41:38;16.13;;;8.65;;
53857;SDS011;39763;51.188;6.690;2022-11-15T02:43:36;15.23;;;7.40;;
53857;SDS011;39763;51.188;6.690;2022-11-15T02:45:48;14.38;;;8.32;;
53857;SDS011;39763;51.188;6.690;2022-11-15T02:47:45;16.85;;;7.80;;
53857;SDS011;39763;51.188;6.690;2022-11-15T02:49:37;13.95;;;8.38;;
53857;SDS011;39763;51.188;6.690;2022-11-15T02:51:30;15.18;;;7.88;;
53857;SDS011;39763;51.188;6.690;2022-11-15T02:53:23;14.73;;;8.50;;
53857;SDS011;39763;51.188;6.690;2022-11-15T02:55:27;15.32;;;8.70;;
53857;SDS011;39763;51.188;6.690;2022-11-15T02:57:19;18.77;;;8.95;;
53857;SDS011;39763;51.188;6.690;2022-11-15T02:59:27;15.75;;;9.18;;
53857;SDS011;39763;51.188;6.690;2022-11-15T03:01:32;14.25;;;8.32;;
53857;SDS011;39763;51.188;6.690;2022-11-15T03:03:37;16.92;;;8.23;;
53857;SDS011;39763;51.188;6.690;2022-11-15T03:05:41;16.55;;;8.43;;
53857;SDS011;39763;51.188;6.690;2022-11-15T03:07:37;13.55;;;8.05;;
53857;SDS011;39763;51.188;6.690;2022-11-15T03:09:34;15.50;;;8.52;;
53857;SDS011;39763;51.188;6.690;2022-11-15T03:11:30;15.50;;;8.43;;
53857;SDS011;39763;51.188;6.690;2022-11-15T03:13:24;18.48;;;9.02;;
53857;SDS011;39763;51.188;6.690;2022-11-15T03:15:18;14.20;;;7.90;;
53857;SDS011;39763;51.188;6.690;2022-11-15T03:17:13;16.42;;;8.88;;
53857;SDS011;39763;51.188;6.690;2022-11-15T03:19:12;15.65;;;9.20;;
53857;SDS011;39763;51.188;6.690;2022-11-15T03:21:08;13.20;;;8.02;;
53857;SDS011;39763;51.188;6.690;2022-11-15T03:23:02;14.77;;;8.43;;
53857;SDS011;39763;51.188;6.690;2022-11-15T03:24:58;15.20;;;8.85;;
53857;SDS011;39763;51.188;6.690;2022-11-15T03:26:54;14.50;;;8.30;;
53857;SDS011;39763;51.188;6.690;2022-11-15T03:28:47;18.48;;;8.85;;
53857;SDS011;39763;51.188;6.690;2022-11-15T03:30:41;14.43;;;8.25;;
53857;SDS011;39763;51.188;6.690;2022-11-15T03:32:34;14.10;;;7.80;;
53857;SDS011;39763;51.188;6.690;2022-11-15T03:34:31;15.80;;;8.48;;
53857;SDS011;39763;51.188;6.690;2022-11-15T03:36:25;14.35;;;8.20;;
53857;SDS011;39763;51.188;6.690;2022-11-15T03:38:17;15.73;;;7.65;;
53857;SDS011;39763;51.188;6.690;2022-11-15T03:40:12;14.55;;;8.00;;
53857;SDS011;39763;51.188;6.690;2022-11-15T03:42:06;15.30;;;8.40;;
53857;SDS011;39763;51.188;6.690;2022-11-15T03:44:10;13.45;;;8.07;;
53857;SDS011;39763;51.188;6.690;2022-11-15T03:46:06;13.23;;;7.68;;
53857;SDS011;39763;51.188;6.690;2022-11-15T03:48:01;13.93;;;7.65;;
53857;SDS011;39763;51.188;6.690;2022-11-15T03:49:57;14.18;;;7.85;;
53857;SDS011;39763;51.188;6.690;2022-11-15T03:51:51;15.98;;;8.55;;
53857;SDS011;39763;51.188;6.690;2022-11-15T03:53:42;14.27;;;7.90;;
53857;SDS011;39763;51.188;6.690;2022-11-15T03:55:32;14.27;;;7.45;;
53857;SDS011;39763;51.188;6.690;2022-11-15T03:57:23;15.88;;;8.55;;
53857;SDS011;39763;51.188;6.690;2022-11-15T03:59:14;16.95;;;8.50;;
53857;SDS011;39763;51.188;6.690;2022-11-15T04:01:04;14.30;;;8.93;;
53857;SDS011;39763;51.188;6.690;2022-11-15T04:02:55;16.30;;;8.52;;
53857;SDS011;39763;51.188;6.690;2022-11-15T04:04:45;14.85;;;8.35;;
53857;SDS011;39763;51.188;6.690;2022-11-15T04:06:37;14.82;;;8.77;;
53857;SDS011;39763;51.188;6.690;2022-11-15T04:08:27;16.67;;;8.63;;
53857;SDS011;39763;51.188;6.690;2022-11-15T04:10:18;15.00;;;8.70;;
53857;SDS011;39763;51.188;6.690;2022-11-15T04:12:08;13.25;;;7.95;;
53857;SDS011;39763;51.188;6.690;2022-11-15T04:13:58;14.32;;;7.45;;
53857;SDS011;39763;51.188;6.690;2022-11-15T04:15:49;14.68;;;7.97;;
53857;SDS011;39763;51.188;6.690;2022-11-15T04:17:40;12.98;;;7.78;;
53857;SDS011;39763;51.188;6.690;2022-11-15T04:19:32;14.55;;;8.25;;
53857;SDS011;39763;51.188;6.690;2022-11-15T04:21:42;14.70;;;8.45;;
53857;SDS011;39763;51.188;6.690;2022-11-15T04:23:51;15.75;;;8.07;;
53857;SDS011;39763;51.188;6.690;2022-11-15T04:25:58;13.77;;;7.68;;
53857;SDS011;39763;51.188;6.690;2022-11-15T04:27:50;15.50;;;7.88;;
53857;SDS011;39763;51.188;6.690;2022-11-15T04:29:40;15.80;;;8.20;;
53857;SDS011;39763;51.188;6.690;2022-11-15T04:31:30;13.63;;;7.68;;
53857;SDS011;39763;51.188;6.690;2022-11-15T04:33:21;15.32;;;7.80;;
53857;SDS011;39763;51.188;6.690;2022-11-15T04:35:11;14.70;;;7.68;;
53857;SDS011;39763;51.188;6.690;2022-11-15T04:37:03;15.00;;;7.50;;
53857;SDS011;39763;51.188;6.690;2022-11-15T04:39:02;14.68;;;7.57;;
53857;SDS011;39763;51.188;6.690;2022-11-15T04:40:52;13.45;;;7.60;;
53857;SDS011;39763;51.188;6.690;2022-11-15T04:42:43;13.20;;;7.55;;
53857;SDS011;39763;51.188;6.690;2022-11-15T04:44:33;13.82;;;7.40;;
53857;SDS011;39763;51.188;6.690;2022-11-15T04:46:24;14.95;;;7.53;;
53857;SDS011;39763;51.188;6.690;2022-11-15T04:48:14;14.45;;;7.25;;
53857;SDS011;39763;51.188;6.690;2022-11-15T04:50:05;13.32;;;7.40;;
53857;SDS011;39763;51.188;6.690;2022-11-15T04:51:56;13.85;;;7.35;;
53857;SDS011;39763;51.188;6.690;2022-11-15T04:53:48;13.57;;;7.38;;
53857;SDS011;39763;51.188;6.690;2022-11-15T04:55:38;13.23;;;7.22;;
53857;SDS011;39763;51.188;6.690;2022-11-15T04:57:28;14.57;;;7.47;;
53857;SDS011;39763;51.188;6.690;2022-11-15T04:59:19;14.80;;;7.28;;
53857;SDS011;39763;51.188;6.690;2022-11-15T05:01:10;15.25;;;7.43;;
53857;SDS011;39763;51.188;6.690;2022-11-15T05:03:02;13.57;;;7.28;;
53857;SDS011;39763;51.188;6.690;2022-11-15T05:05:11;12.88;;;7.50;;
53857;SDS011;39763;51.188;6.690;2022-11-15T05:07:01;14.23;;;6.90;;
53857;SDS011;39763;51.188;6.690;2022-11-15T05:08:55;12.85;;;6.53;;
53857;SDS011;39763;51.188;6.690;2022-11-15T05:10:47;12.90;;;7.15;;
53857;SDS011;39763;51.188;6.690;2022-11-15T05:12:37;13.10;;;7.40;;
53857;SDS011;39763;51.188;6.690;2022-11-15T05:14:27;17.77;;;7.32;;
53857;SDS011;39763;51.188;6.690;2022-11-15T05:16:19;13.75;;;7.35;;
53857;SDS011;39763;51.188;6.690;2022-11-15T05:18:09;15.18;;;7.55;;
53857;SDS011;39763;51.188;6.690;2022-11-15T05:19:59;13.57;;;7.13;;
53857;SDS011;39763;51.188;6.690;2022-11-15T05:21:49;12.90;;;7.30;;
53857;SDS011;39763;51.188;6.690;2022-11-15T05:23:40;14.48;;;7.38;;
53857;SDS011;39763;51.188;6.690;2022-11-15T05:25:32;13.88;;;7.38;;
53857;SDS011;39763;51.188;6.690;2022-11-15T05:27:22;12.52;;;7.18;;
53857;SDS011;39763;51.188;6.690;2022-11-15T05:29:13;12.13;;;6.70;;
53857;SDS011;39763;51.188;6.690;2022-11-15T05:31:04;13.85;;;7.43;;
53857;SDS011;39763;51.188;6.690;2022-11-15T05:32:56;14.73;;;7.30;;
53857;SDS011;39763;51.188;6.690;2022-11-15T05:34:46;11.80;;;7.13;;
53857;SDS011;39763;51.188;6.690;2022-11-15T05:36:37;12.32;;;7.35;;
53857;SDS011;39763;51.188;6.690;2022-11-15T05:38:28;12.90;;;7.25;;
53857;SDS011;39763;51.188;6.690;2022-11-15T05:40:18;13.10;;;7.05;;
53857;SDS011;39763;51.188;6.690;2022-11-15T05:42:11;12.95;;;7.47;;
53857;SDS011;39763;51.188;6.690;2022-11-15T05:44:02;14.10;;;7.85;;
53857;SDS011;39763;51.188;6.690;2022-11-15T05:45:57;14.52;;;7.55;;
53857;SDS011;39763;51.188;6.690;2022-11-15T05:47:49;12.68;;;7.10;;
53857;SDS011;39763;51.188;6.690;2022-11-15T05:49:41;13.02;;;7.63;;
53857;SDS011;39763;51.188;6.690;2022-11-15T05:51:33;14.23;;;7.55;;
53857;SDS011;39763;51.188;6.690;2022-11-15T05:53:24;12.40;;;7.43;;
53857;SDS011;39763;51.188;6.690;2022-11-15T05:55:15;12.70;;;7.32;;
53857;SDS011;39763;51.188;6.690;2022-11-15T05:57:06;12.85;;;7.20;;
53857;SDS011;39763;51.188;6.690;2022-11-15T05:58:57;13.25;;;7.25;;
53857;SDS011;39763;51.188;6.690;2022-11-15T06:00:49;12.68;;;7.60;;
53857;SDS011;39763;51.188;6.690;2022-11-15T06:02:39;12.85;;;7.20;;
53857;SDS011;39763;51.188;6.690;2022-11-15T06:04:30;12.80;;;7.07;;
53857;SDS011;39763;51.188;6.690;2022-11-15T06:06:20;13.30;;;7.90;;
53857;SDS011;39763;51.188;6.690;2022-11-15T06:08:10;11.80;;;6.95;;
53857;SDS011;39763;51.188;6.690;2022-11-15T06:10:00;12.13;;;6.97;;
53857;SDS011;39763;51.188;6.690;2022-11-15T06:11:51;12.90;;;7.28;;
53857;SDS011;39763;51.188;6.690;2022-11-15T06:13:41;12.27;;;7.32;;
53857;SDS011;39763;51.188;6.690;2022-11-15T06:15:33;12.07;;;7.25;;
53857;SDS011;39763;51.188;6.690;2022-11-15T06:17:26;12.23;;;7.28;;
53857;SDS011;39763;51.188;6.690;2022-11-15T06:19:16;12.57;;;7.00;;
53857;SDS011;39763;51.188;6.690;2022-11-15T06:21:07;12.52;;;7.57;;
53857;SDS011;39763;51.188;6.690;2022-11-15T06:22:57;11.48;;;6.88;;
53857;SDS011;39763;51.188;6.690;2022-11-15T06:24:47;13.23;;;8.13;;
53857;SDS011;39763;51.188;6.690;2022-11-15T06:26:38;11.95;;;7.43;;
53857;SDS011;39763;51.188;6.690;2022-11-15T06:28:28;12.45;;;7.13;;
53857;SDS011;39763;51.188;6.690;2022-11-15T06:30:19;13.88;;;7.43;;
53857;SDS011;39763;51.188;6.690;2022-11-15T06:32:12;11.85;;;7.03;;
53857;SDS011;39763;51.188;6.690;2022-11-15T06:34:02;12.82;;;7.30;;
53857;SDS011;39763;51.188;6.690;2022-11-15T06:35:52;13.20;;;7.22;;
53857;SDS011;39763;51.188;6.690;2022-11-15T06:37:43;11.52;;;6.68;;
53857;SDS011;39763;51.188;6.690;2022-11-15T06:39:34;11.90;;;6.00;;
53857;SDS011;39763;51.188;6.690;2022-11-15T06:41:25;10.80;;;6.05;;
53857;SDS011;39763;51.188;6.690;2022-11-15T06:43:16;11.45;;;5.93;;
53857;SDS011;39763;51.188;6.690;2022-11-15T06:45:06;11.95;;;5.82;;
53857;SDS011;39763;51.188;6.690;2022-11-15T06:46:57;12.38;;;5.45;;
53857;SDS011;39763;51.188;6.690;2022-11-15T06:48:49;11.32;;;5.55;;
53857;SDS011;39763;51.188;6.690;2022-11-15T06:50:40;11.95;;;5.80;;
53857;SDS011;39763;51.188;6.690;2022-11-15T06:52:31;10.38;;;5.35;;
53857;SDS011;39763;51.188;6.690;2022-11-15T06:54:23;9.68;;;4.95;;
53857;SDS011;39763;51.188;6.690;2022-11-15T06:56:13;10.68;;;5.20;;
53857;SDS011;39763;51.188;6.690;2022-11-15T06:58:04;9.63;;;5.00;;
53857;SDS011;39763;51.188;6.690;2022-11-15T06:59:54;9.88;;;4.82;;
53857;SDS011;39763;51.188;6.690;2022-11-15T07:01:44;10.98;;;4.47;;
53857;SDS011;39763;51.188;6.690;2022-11-15T07:03:35;10.45;;;4.82;;
53857;SDS011;39763;51.188;6.690;2022-11-15T07:05:28;9.30;;;4.53;;
53857;SDS011;39763;51.188;6.690;2022-11-15T07:07:18;9.55;;;4.65;;
53857;SDS011;39763;51.188;6.690;2022-11-15T07:09:08;11.80;;;4.43;;
53857;SDS011;39763;51.188;6.690;2022-11-15T07:10:58;9.68;;;4.47;;
53857;SDS011;39763;51.188;6.690;2022-11-15T07:12:50;10.30;;;4.72;;
53857;SDS011;39763;51.188;6.690;2022-11-15T07:14:40;10.10;;;4.45;;
53857;SDS011;39763;51.188;6.690;2022-11-15T07:16:30;7.88;;;4.13;;
53857;SDS011;39763;51.188;6.690;2022-11-15T07:18:21;10.63;;;5.10;;
53857;SDS011;39763;51.188;6.690;2022-11-15T07:20:12;10.20;;;4.78;;
53857;SDS011;39763;51.188;6.690;2022-11-15T07:22:06;9.40;;;3.97;;
53857;SDS011;39763;51.188;6.690;2022-11-15T07:23:57;10.32;;;4.70;;
53857;SDS011;39763;51.188;6.690;2022-11-15T07:25:47;10.45;;;4.57;;
53857;SDS011;39763;51.188;6.690;2022-11-15T07:27:37;9.45;;;4.85;;
53857;SDS011;39763;51.188;6.690;2022-11-15T07:29:28;9.30;;;4.53;;
53857;SDS011;39763;51.188;6.690;2022-11-15T07:31:18;10.25;;;4.45;;
53857;SDS011;39763;51.188;6.690;2022-11-15T07:33:08;9.88;;;4.50;;
53857;SDS011;39763;51.188;6.690;2022-11-15T07:34:59;10.50;;;4.53;;
53857;SDS011;39763;51.188;6.690;2022-11-15T07:36:49;10.15;;;4.63;;
53857;SDS011;39763;51.188;6.690;2022-11-15T07:38:41;13.23;;;6.85;;
53857;SDS011;39763;51.188;6.690;2022-11-15T07:40:32;12.07;;;6.75;;
53857;SDS011;39763;51.188;6.690;2022-11-15T07:42:22;10.85;;;5.03;;
53857;SDS011;39763;51.188;6.690;2022-11-15T07:44:31;10.02;;;4.90;;
53857;SDS011;39763;51.188;6.690;2022-11-15T07:46:21;10.25;;;5.15;;
53857;SDS011;39763;51.188;6.690;2022-11-15T07:48:12;9.98;;;4.88;;
53857;SDS011;39763;51.188;6.690;2022-11-15T07:50:02;10.38;;;4.80;;
53857;SDS011;39763;51.188;6.690;2022-11-15T07:51:53;10.20;;;4.57;;
53857;SDS011;39763;51.188;6.690;2022-11-15T07:53:45;9.77;;;4.70;;
53857;SDS011;39763;51.188;6.690;2022-11-15T07:55:35;11.02;;;4.60;;
53857;SDS011;39763;51.188;6.690;2022-11-15T07:57:25;9.20;;;4.50;;
53857;SDS011;39763;51.188;6.690;2022-11-15T07:59:16;10.65;;;4.80;;
53857;SDS011;39763;51.188;6.690;2022-11-15T08:01:07;9.35;;;4.65;;
53857;SDS011;39763;51.188;6.690;2022-11-15T08:03:02;10.07;;;4.53;;
53857;SDS011;39763;51.188;6.690;2022-11-15T08:04:53;8.75;;;4.45;;
53857;SDS011;39763;51.188;6.690;2022-11-15T08:06:44;11.35;;;4.75;;
53857;SDS011;39763;51.188;6.690;2022-11-15T08:08:34;10.48;;;4.65;;
53857;SDS011;39763;51.188;6.690;2022-11-15T08:10:26;10.13;;;4.75;;
53857;SDS011;39763;51.188;6.690;2022-11-15T08:12:17;10.90;;;5.00;;
53857;SDS011;39763;51.188;6.690;2022-11-15T08:14:08;10.65;;;4.70;;
53857;SDS011;39763;51.188;6.690;2022-11-15T08:15:58;11.18;;;4.85;;
53857;SDS011;39763;51.188;6.690;2022-11-15T08:17:52;8.60;;;4.15;;
53857;SDS011;39763;51.188;6.690;2022-11-15T08:19:43;11.25;;;5.10;;
53857;SDS011;39763;51.188;6.690;2022-11-15T08:21:33;11.05;;;4.80;;
53857;SDS011;39763;51.188;6.690;2022-11-15T08:23:25;9.77;;;4.93;;
53857;SDS011;39763;51.188;6.690;2022-11-15T08:25:15;10.13;;;5.03;;
53857;SDS011;39763;51.188;6.690;2022-11-15T08:27:08;11.80;;;5.70;;
53857;SDS011;39763;51.188;6.690;2022-11-15T08:29:04;12.85;;;6.15;;
53857;SDS011;39763;51.188;6.690;2022-11-15T08:30:55;9.48;;;4.63;;
53857;SDS011;39763;51.188;6.690;2022-11-15T08:32:45;9.82;;;4.88;;
53857;SDS011;39763;51.188;6.690;2022-11-15T08:34:35;11.30;;;4.90;;
53857;SDS011;39763;51.188;6.690;2022-11-15T08:36:26;9.20;;;4.10;;
53857;SDS011;39763;51.188;6.690;2022-11-15T08:38:26;9.68;;;4.13;;
53857;SDS011;39763;51.188;6.690;2022-11-15T08:40:19;7.90;;;3.67;;
53857;SDS011;39763;51.188;6.690;2022-11-15T08:42:11;10.13;;;3.88;;
53857;SDS011;39763;51.188;6.690;2022-11-15T08:44:08;9.50;;;3.95;;
53857;SDS011;39763;51.188;6.690;2022-11-15T08:45:59;8.48;;;3.97;;
53857;SDS011;39763;51.188;6.690;2022-11-15T08:47:49;9.15;;;3.88;;
53857;SDS011;39763;51.188;6.690;2022-11-15T08:49:43;8.80;;;4.07;;
53857;SDS011;39763;51.188;6.690;2022-11-15T08:51:34;7.53;;;3.65;;
53857;SDS011;39763;51.188;6.690;2022-11-15T08:53:24;8.80;;;3.83;;
53857;SDS011;39763;51.188;6.690;2022-11-15T08:55:14;7.38;;;3.75;;
53857;SDS011;39763;51.188;6.690;2022-11-15T08:57:06;8.07;;;3.70;;
53857;SDS011;39763;51.188;6.690;2022-11-15T08:59:00;8.18;;;3.80;;
53857;SDS011;39763;51.188;6.690;2022-11-15T09:00:50;8.10;;;3.55;;
53857;SDS011;39763;51.188;6.690;2022-11-15T09:02:40;10.60;;;3.83;;
53857;SDS011;39763;51.188;6.690;2022-11-15T09:04:31;7.80;;;3.55;;
53857;SDS011;39763;51.188;6.690;2022-11-15T09:06:21;7.85;;;3.38;;
53857;SDS011;39763;51.188;6.690;2022-11-15T09:08:12;7.63;;;3.40;;
53857;SDS011;39763;51.188;6.690;2022-11-15T09:10:22;7.60;;;3.47;;
53857;SDS011;39763;51.188;6.690;2022-11-15T09:12:13;6.07;;;2.80;;
53857;SDS011;39763;51.188;6.690;2022-11-15T09:14:05;5.65;;;2.78;;
53857;SDS011;39763;51.188;6.690;2022-11-15T09:15:57;7.03;;;3.15;;
53857;SDS011;39763;51.188;6.690;2022-11-15T09:17:47;6.45;;;2.60;;
53857;SDS011;39763;51.188;6.690;2022-11-15T09:19:37;7.20;;;3.20;;
53857;SDS011;39763;51.188;6.690;2022-11-15T09:21:28;6.25;;;2.85;;
53857;SDS011;39763;51.188;6.690;2022-11-15T09:23:19;7.13;;;3.00;;
53857;SDS011;39763;51.188;6.690;2022-11-15T09:25:09;8.07;;;2.97;;
53857;SDS011;39763;51.188;6.690;2022-11-15T09:27:00;9.95;;;2.90;;
53857;SDS011;39763;51.188;6.690;2022-11-15T09:28:50;7.60;;;3.20;;
53857;SDS011;39763;51.188;6.690;2022-11-15T09:30:42;7.25;;;2.90;;
53857;SDS011;39763;51.188;6.690;2022-11-15T09:32:32;5.13;;;2.60;;
53857;SDS011;39763;51.188;6.690;2022-11-15T09:34:28;6.50;;;3.00;;
53857;SDS011;39763;51.188;6.690;2022-11-15T09:36:18;6.28;;;2.70;;
53857;SDS011;39763;51.188;6.690;2022-11-15T09:38:09;5.78;;;2.67;;
53857;SDS011;39763;51.188;6.690;2022-11-15T09:39:59;7.72;;;2.60;;
53857;SDS011;39763;51.188;6.690;2022-11-15T09:42:03;5.25;;;2.40;;
53857;SDS011;39763;51.188;6.690;2022-11-15T09:44:13;5.82;;;2.38;;
53857;SDS011;39763;51.188;6.690;2022-11-15T09:46:27;5.20;;;2.65;;
53857;SDS011;39763;51.188;6.690;2022-11-15T09:48:38;6.07;;;2.67;;
53857;SDS011;39763;51.188;6.690;2022-11-15T09:50:36;6.28;;;2.97;;
53857;SDS011;39763;51.188;6.690;2022-11-15T09:52:13;6.47;;;2.40;;
53857;SDS011;39763;51.188;6.690;2022-11-15T09:53:47;9.95;;;3.20;;
53857;SDS011;39763;51.188;6.690;2022-11-15T09:55:44;5.13;;;2.45;;
53857;SDS011;39763;51.188;6.690;2022-11-15T09:59:04;4.68;;;2.60;;
53857;SDS011;39763;51.188;6.690;2022-11-15T10:00:48;6.70;;;2.72;;
53857;SDS011;39763;51.188;6.690;2022-11-15T10:02:33;6.28;;;2.45;;
53857;SDS011;39763;51.188;6.690;2022-11-15T10:05:46;7.63;;;2.50;;
53857;SDS011;39763;51.188;6.690;2022-11-15T10:07:21;7.18;;;2.40;;
53857;SDS011;39763;51.188;6.690;2022-11-15T10:08:58;6.68;;;2.63;;
53857;SDS011;39763;51.188;6.690;2022-11-15T10:10:34;4.45;;;2.13;;
53857;SDS011;39763;51.188;6.690;2022-11-15T10:12:10;7.22;;;3.00;;
53857;SDS011;39763;51.188;6.690;2022-11-15T10:13:45;5.93;;;2.13;;
53857;SDS011;39763;51.188;6.690;2022-11-15T10:15:21;4.90;;;2.40;;
53857;SDS011;39763;51.188;6.690;2022-11-15T10:16:59;7.47;;;2.72;;
53857;SDS011;39763;51.188;6.690;2022-11-15T10:18:44;7.75;;;2.50;;
53857;SDS011;39763;51.188;6.690;2022-11-15T10:20:24;4.78;;;2.40;;
53857;SDS011;39763;51.188;6.690;2022-11-15T10:22:00;6.13;;;2.45;;
53857;SDS011;39763;51.188;6.690;2022-11-15T10:23:43;7.13;;;2.50;;
53857;SDS011;39763;51.188;6.690;2022-11-15T10:25:17;6.30;;;2.85;;
53857;SDS011;39763;51.188;6.690;2022-11-15T10:26:54;9.02;;;2.40;;
53857;SDS011;39763;51.188;6.690;2022-11-15T10:28:26;6.15;;;2.58;;
53857;SDS011;39763;51.188;6.690;2022-11-15T10:30:00;7.03;;;2.67;;
53857;SDS011;39763;51.188;6.690;2022-11-15T10:31:37;5.97;;;2.35;;
53857;SDS011;39763;51.188;6.690;2022-11-15T10:33:13;5.45;;;2.58;;
53857;SDS011;39763;51.188;6.690;2022-11-15T10:35:23;6.32;;;2.65;;
53857;SDS011;39763;51.188;6.690;2022-11-15T10:36:56;5.53;;;2.40;;
53857;SDS011;39763;51.188;6.690;2022-11-15T10:38:29;6.57;;;2.67;;
53857;SDS011;39763;51.188;6.690;2022-11-15T10:40:05;5.00;;;2.50;;
53857;SDS011;39763;51.188;6.690;2022-11-15T10:41:45;6.57;;;2.70;;
53857;SDS011;39763;51.188;6.690;2022-11-15T10:43:18;5.72;;;2.47;;
53857;SDS011;39763;51.188;6.690;2022-11-15T10:44:50;6.95;;;2.35;;
53857;SDS011;39763;51.188;6.690;2022-11-15T10:46:22;6.35;;;2.50;;
53857;SDS011;39763;51.188;6.690;2022-11-15T10:48:22;5.75;;;2.38;;
53857;SDS011;39763;51.188;6.690;2022-11-15T10:49:59;7.18;;;2.55;;
53857;SDS011;39763;51.188;6.690;2022-11-15T10:51:34;4.80;;;2.25;;
53857;SDS011;39763;51.188;6.690;2022-11-15T10:53:15;5.78;;;2.30;;
53857;SDS011;39763;51.188;6.690;2022-11-15T10:54:54;5.78;;;2.50;;
53857;SDS011;39763;51.188;6.690;2022-11-15T10:56:28;4.88;;;2.10;;
53857;SDS011;39763;51.188;6.690;2022-11-15T10:58:01;5.93;;;2.00;;
53857;SDS011;39763;51.188;6.690;2022-11-15T10:59:35;5.88;;;2.38;;
53857;SDS011;39763;51.188;6.690;2022-11-15T11:01:10;4.63;;;2.10;;
53857;SDS011;39763;51.188;6.690;2022-11-15T11:02:45;7.47;;;3.05;;
53857;SDS011;39763;51.188;6.690;2022-11-15T11:04:28;7.38;;;2.40;;
53857;SDS011;39763;51.188;6.690;2022-11-15T11:06:03;6.28;;;2.40;;
53857;SDS011;39763;51.188;6.690;2022-11-15T11:07:38;5.10;;;2.00;;
53857;SDS011;39763;51.188;6.690;2022-11-15T11:09:23;6.45;;;2.00;;